sensor_id;sensor_type;location;lat;lon;timestamp;P1;durP1;ratioP1;P2;durP2;ratioP2
59042;SDS011;44826;51.596;5.624;2023-09-19T00:00:26;6.68;;;1.35;;
59042;SDS011;44826;51.596;5.624;2023-09-19T00:02:56;5.95;;;1.30;;
59042;SDS011;44826;51.596;5.624;2023-09-19T00:05:22;6.55;;;1.45;;
59042;SDS011;44826;51.596;5.624;2023-09-19T00:07:49;9.98;;;2.45;;
59042;SDS011;44826;51.596;5.624;2023-09-19T00:10:16;7.85;;;1.40;;
59042;SDS011;44826;51.596;5.624;2023-09-19T00:12:45;5.53;;;1.33;;
59042;SDS011;44826;51.596;5.624;2023-09-19T00:15:10;6.13;;;1.50;;
59042;SDS011;44826;51.596;5.624;2023-09-19T00:17:36;7.75;;;1.52;;
59042;SDS011;44826;51.596;5.624;2023-09-19T00:20:02;6.97;;;1.48;;
59042;SDS011;44826;51.596;5.624;2023-09-19T00:22:32;6.47;;;1.80;;
59042;SDS011;44826;51.596;5.624;2023-09-19T00:24:58;8.77;;;1.70;;
59042;SDS011;44826;51.596;5.624;2023-09-19T00:27:23;7.25;;;1.60;;
59042;SDS011;44826;51.596;5.624;2023-09-19T00:29:48;5.53;;;1.35;;
59042;SDS011;44826;51.596;5.624;2023-09-19T00:32:13;6.05;;;1.45;;
59042;SDS011;44826;51.596;5.624;2023-09-19T00:34:38;7.47;;;1.67;;
59042;SDS011;44826;51.596;5.624;2023-09-19T00:37:04;7.43;;;1.50;;
59042;SDS011;44826;51.596;5.624;2023-09-19T00:39:29;5.07;;;1.27;;
59042;SDS011;44826;51.596;5.624;2023-09-19T00:41:56;6.85;;;1.45;;
59042;SDS011;44826;51.596;5.624;2023-09-19T00:44:22;4.45;;;1.30;;
59042;SDS011;44826;51.596;5.624;2023-09-19T00:46:48;6.30;;;1.35;;
59042;SDS011;44826;51.596;5.624;2023-09-19T00:49:15;6.38;;;1.38;;
59042;SDS011;44826;51.596;5.624;2023-09-19T00:51:40;8.50;;;1.38;;
59042;SDS011;44826;51.596;5.624;2023-09-19T00:54:10;6.15;;;1.45;;
59042;SDS011;44826;51.596;5.624;2023-09-19T00:56:38;6.93;;;1.23;;
59042;SDS011;44826;51.596;5.624;2023-09-19T00:59:05;6.25;;;1.33;;
59042;SDS011;44826;51.596;5.624;2023-09-19T01:01:31;10.00;;;1.50;;
59042;SDS011;44826;51.596;5.624;2023-09-19T01:03:56;7.95;;;1.48;;
59042;SDS011;44826;51.596;5.624;2023-09-19T01:06:22;7.65;;;1.65;;
59042;SDS011;44826;51.596;5.624;2023-09-19T01:08:47;4.57;;;1.17;;
59042;SDS011;44826;51.596;5.624;2023-09-19T01:11:14;7.97;;;1.52;;
59042;SDS011;44826;51.596;5.624;2023-09-19T01:13:55;7.28;;;1.50;;
59042;SDS011;44826;51.596;5.624;2023-09-19T01:17:09;8.98;;;1.60;;
59042;SDS011;44826;51.596;5.624;2023-09-19T01:22:07;6.68;;;1.35;;
59042;SDS011;44826;51.596;5.624;2023-09-19T01:24:54;5.25;;;1.40;;
59042;SDS011;44826;51.596;5.624;2023-09-19T01:30:34;6.87;;;1.30;;
59042;SDS011;44826;51.596;5.624;2023-09-19T01:33:04;8.23;;;1.52;;
59042;SDS011;44826;51.596;5.624;2023-09-19T01:35:31;7.22;;;1.52;;
59042;SDS011;44826;51.596;5.624;2023-09-19T01:37:59;6.55;;;1.42;;
59042;SDS011;44826;51.596;5.624;2023-09-19T01:40:24;5.93;;;1.60;;
59042;SDS011;44826;51.596;5.624;2023-09-19T01:48:41;6.75;;;1.20;;
59042;SDS011;44826;51.596;5.624;2023-09-19T01:51:13;5.45;;;1.50;;
59042;SDS011;44826;51.596;5.624;2023-09-19T01:54:00;7.53;;;1.30;;
59042;SDS011;44826;51.596;5.624;2023-09-19T01:56:32;5.85;;;1.50;;
59042;SDS011;44826;51.596;5.624;2023-09-19T01:59:04;7.07;;;1.40;;
59042;SDS011;44826;51.596;5.624;2023-09-19T02:01:34;7.15;;;1.40;;
59042;SDS011;44826;51.596;5.624;2023-09-19T02:04:02;7.35;;;1.50;;
59042;SDS011;44826;51.596;5.624;2023-09-19T02:06:27;6.70;;;1.40;;
59042;SDS011;44826;51.596;5.624;2023-09-19T02:08:53;8.38;;;1.40;;
59042;SDS011;44826;51.596;5.624;2023-09-19T02:11:19;7.20;;;1.20;;
59042;SDS011;44826;51.596;5.624;2023-09-19T02:13:45;7.15;;;1.40;;
59042;SDS011;44826;51.596;5.624;2023-09-19T02:16:10;5.97;;;1.48;;
59042;SDS011;44826;51.596;5.624;2023-09-19T02:18:37;6.97;;;1.30;;
59042;SDS011;44826;51.596;5.624;2023-09-19T02:21:04;5.03;;;1.10;;
59042;SDS011;44826;51.596;5.624;2023-09-19T02:23:31;5.50;;;1.20;;
59042;SDS011;44826;51.596;5.624;2023-09-19T02:25:58;6.80;;;1.30;;
59042;SDS011;44826;51.596;5.624;2023-09-19T02:28:25;4.40;;;1.10;;
59042;SDS011;44826;51.596;5.624;2023-09-19T02:30:54;6.45;;;1.05;;
59042;SDS011;44826;51.596;5.624;2023-09-19T02:33:20;6.85;;;1.48;;
59042;SDS011;44826;51.596;5.624;2023-09-19T02:35:46;5.18;;;1.38;;
59042;SDS011;44826;51.596;5.624;2023-09-19T02:38:11;6.68;;;1.15;;
59042;SDS011;44826;51.596;5.624;2023-09-19T02:40:37;4.78;;;1.20;;
59042;SDS011;44826;51.596;5.624;2023-09-19T02:43:03;6.25;;;1.08;;
59042;SDS011;44826;51.596;5.624;2023-09-19T02:45:28;5.72;;;1.48;;
59042;SDS011;44826;51.596;5.624;2023-09-19T02:47:55;5.32;;;1.15;;
59042;SDS011;44826;51.596;5.624;2023-09-19T02:50:20;6.15;;;1.10;;
59042;SDS011;44826;51.596;5.624;2023-09-19T02:52:46;4.80;;;1.15;;
59042;SDS011;44826;51.596;5.624;2023-09-19T02:55:13;5.50;;;1.42;;
59042;SDS011;44826;51.596;5.624;2023-09-19T02:57:45;4.95;;;1.27;;
59042;SDS011;44826;51.596;5.624;2023-09-19T03:00:11;7.35;;;1.40;;
59042;SDS011;44826;51.596;5.624;2023-09-19T03:02:37;4.88;;;1.20;;
59042;SDS011;44826;51.596;5.624;2023-09-19T03:05:04;4.70;;;1.10;;
59042;SDS011;44826;51.596;5.624;2023-09-19T03:07:31;4.30;;;1.05;;
59042;SDS011;44826;51.596;5.624;2023-09-19T03:09:56;5.93;;;1.30;;
59042;SDS011;44826;51.596;5.624;2023-09-19T03:12:21;6.50;;;1.55;;
59042;SDS011;44826;51.596;5.624;2023-09-19T03:14:47;7.63;;;1.10;;
59042;SDS011;44826;51.596;5.624;2023-09-19T03:17:13;5.20;;;1.10;;
59042;SDS011;44826;51.596;5.624;2023-09-19T03:19:39;4.55;;;1.10;;
59042;SDS011;44826;51.596;5.624;2023-09-19T03:22:05;6.65;;;1.10;;
59042;SDS011;44826;51.596;5.624;2023-09-19T03:24:30;3.72;;;1.10;;
59042;SDS011;44826;51.596;5.624;2023-09-19T03:26:56;3.30;;;0.93;;
59042;SDS011;44826;51.596;5.624;2023-09-19T03:29:22;6.18;;;1.05;;
59042;SDS011;44826;51.596;5.624;2023-09-19T03:31:47;3.97;;;1.02;;
59042;SDS011;44826;51.596;5.624;2023-09-19T03:34:13;4.80;;;1.00;;
59042;SDS011;44826;51.596;5.624;2023-09-19T03:36:38;6.07;;;1.25;;
59042;SDS011;44826;51.596;5.624;2023-09-19T03:39:04;5.75;;;1.33;;
59042;SDS011;44826;51.596;5.624;2023-09-19T03:41:30;5.00;;;1.15;;
59042;SDS011;44826;51.596;5.624;2023-09-19T03:43:56;4.35;;;1.30;;
59042;SDS011;44826;51.596;5.624;2023-09-19T03:46:21;5.15;;;1.10;;
59042;SDS011;44826;51.596;5.624;2023-09-19T03:48:47;4.80;;;1.30;;
59042;SDS011;44826;51.596;5.624;2023-09-19T03:51:12;4.10;;;1.10;;
59042;SDS011;44826;51.596;5.624;2023-09-19T03:53:37;4.72;;;1.10;;
59042;SDS011;44826;51.596;5.624;2023-09-19T03:56:02;4.75;;;1.00;;
59042;SDS011;44826;51.596;5.624;2023-09-19T03:58:28;5.10;;;1.10;;
59042;SDS011;44826;51.596;5.624;2023-09-19T04:00:56;4.20;;;1.15;;
59042;SDS011;44826;51.596;5.624;2023-09-19T04:03:22;5.30;;;1.20;;
59042;SDS011;44826;51.596;5.624;2023-09-19T04:05:48;6.38;;;1.30;;
59042;SDS011;44826;51.596;5.624;2023-09-19T04:08:14;5.88;;;1.10;;
59042;SDS011;44826;51.596;5.624;2023-09-19T04:10:41;6.85;;;1.30;;
59042;SDS011;44826;51.596;5.624;2023-09-19T04:13:07;8.27;;;1.40;;
59042;SDS011;44826;51.596;5.624;2023-09-19T04:15:32;6.38;;;1.10;;
59042;SDS011;44826;51.596;5.624;2023-09-19T04:17:58;4.93;;;1.50;;
59042;SDS011;44826;51.596;5.624;2023-09-19T04:20:23;6.18;;;0.95;;
59042;SDS011;44826;51.596;5.624;2023-09-19T04:22:48;6.22;;;1.30;;
59042;SDS011;44826;51.596;5.624;2023-09-19T04:25:13;5.82;;;1.17;;
59042;SDS011;44826;51.596;5.624;2023-09-19T04:27:39;5.57;;;1.23;;
59042;SDS011;44826;51.596;5.624;2023-09-19T04:30:06;8.00;;;1.13;;
59042;SDS011;44826;51.596;5.624;2023-09-19T04:32:36;5.57;;;1.15;;
59042;SDS011;44826;51.596;5.624;2023-09-19T04:35:05;6.35;;;1.27;;
59042;SDS011;44826;51.596;5.624;2023-09-19T04:37:33;5.20;;;1.20;;
59042;SDS011;44826;51.596;5.624;2023-09-19T04:40:00;5.63;;;1.13;;
59042;SDS011;44826;51.596;5.624;2023-09-19T04:42:25;8.18;;;1.30;;
59042;SDS011;44826;51.596;5.624;2023-09-19T04:44:52;5.10;;;1.10;;
59042;SDS011;44826;51.596;5.624;2023-09-19T04:47:18;4.53;;;1.05;;
59042;SDS011;44826;51.596;5.624;2023-09-19T04:49:43;5.53;;;1.13;;
59042;SDS011;44826;51.596;5.624;2023-09-19T04:52:08;5.72;;;1.00;;
59042;SDS011;44826;51.596;5.624;2023-09-19T04:54:34;5.22;;;1.13;;
59042;SDS011;44826;51.596;5.624;2023-09-19T04:56:59;4.35;;;1.10;;
59042;SDS011;44826;51.596;5.624;2023-09-19T04:59:25;6.32;;;1.30;;
59042;SDS011;44826;51.596;5.624;2023-09-19T05:01:50;6.05;;;1.38;;
59042;SDS011;44826;51.596;5.624;2023-09-19T05:04:16;6.60;;;1.40;;
59042;SDS011;44826;51.596;5.624;2023-09-19T05:06:41;6.15;;;1.20;;
59042;SDS011;44826;51.596;5.624;2023-09-19T05:09:06;3.63;;;1.10;;
59042;SDS011;44826;51.596;5.624;2023-09-19T05:11:33;10.75;;;1.63;;
59042;SDS011;44826;51.596;5.624;2023-09-19T05:13:58;4.88;;;1.42;;
59042;SDS011;44826;51.596;5.624;2023-09-19T05:16:28;4.10;;;1.30;;
59042;SDS011;44826;51.596;5.624;2023-09-19T05:18:54;6.15;;;1.23;;
59042;SDS011;44826;51.596;5.624;2023-09-19T05:21:20;6.70;;;1.85;;
59042;SDS011;44826;51.596;5.624;2023-09-19T05:23:45;4.43;;;1.08;;
59042;SDS011;44826;51.596;5.624;2023-09-19T05:26:10;5.55;;;1.13;;
59042;SDS011;44826;51.596;5.624;2023-09-19T05:28:36;8.18;;;1.35;;
59042;SDS011;44826;51.596;5.624;2023-09-19T05:31:02;6.20;;;1.10;;
59042;SDS011;44826;51.596;5.624;2023-09-19T05:33:28;6.53;;;1.30;;
59042;SDS011;44826;51.596;5.624;2023-09-19T05:35:53;7.88;;;1.38;;
59042;SDS011;44826;51.596;5.624;2023-09-19T05:38:18;5.57;;;1.42;;
59042;SDS011;44826;51.596;5.624;2023-09-19T05:40:45;5.38;;;1.00;;
59042;SDS011;44826;51.596;5.624;2023-09-19T05:43:11;5.93;;;1.40;;
59042;SDS011;44826;51.596;5.624;2023-09-19T05:45:36;5.25;;;1.08;;
59042;SDS011;44826;51.596;5.624;2023-09-19T05:48:12;6.22;;;1.20;;
59042;SDS011;44826;51.596;5.624;2023-09-19T05:50:38;6.20;;;1.15;;
59042;SDS011;44826;51.596;5.624;2023-09-19T05:53:04;4.55;;;1.25;;
59042;SDS011;44826;51.596;5.624;2023-09-19T05:55:30;4.45;;;1.20;;
59042;SDS011;44826;51.596;5.624;2023-09-19T05:57:56;8.13;;;1.30;;
59042;SDS011;44826;51.596;5.624;2023-09-19T06:00:22;5.75;;;1.20;;
59042;SDS011;44826;51.596;5.624;2023-09-19T06:02:51;7.07;;;1.48;;
59042;SDS011;44826;51.596;5.624;2023-09-19T06:05:17;4.80;;;1.27;;
59042;SDS011;44826;51.596;5.624;2023-09-19T06:07:43;4.68;;;1.23;;
59042;SDS011;44826;51.596;5.624;2023-09-19T06:10:08;5.47;;;1.10;;
59042;SDS011;44826;51.596;5.624;2023-09-19T06:12:38;7.68;;;1.33;;
59042;SDS011;44826;51.596;5.624;2023-09-19T06:15:04;6.13;;;1.50;;
59042;SDS011;44826;51.596;5.624;2023-09-19T06:17:41;7.25;;;1.30;;
59042;SDS011;44826;51.596;5.624;2023-09-19T06:20:27;4.97;;;1.10;;
59042;SDS011;44826;51.596;5.624;2023-09-19T06:22:53;6.00;;;1.20;;
59042;SDS011;44826;51.596;5.624;2023-09-19T06:25:19;5.93;;;1.35;;
59042;SDS011;44826;51.596;5.624;2023-09-19T06:27:51;7.28;;;1.60;;
59042;SDS011;44826;51.596;5.624;2023-09-19T06:30:19;6.25;;;1.40;;
59042;SDS011;44826;51.596;5.624;2023-09-19T06:32:45;6.53;;;1.30;;
59042;SDS011;44826;51.596;5.624;2023-09-19T06:35:14;7.75;;;1.88;;
59042;SDS011;44826;51.596;5.624;2023-09-19T06:37:40;5.65;;;1.25;;
59042;SDS011;44826;51.596;5.624;2023-09-19T06:40:08;7.05;;;1.48;;
59042;SDS011;44826;51.596;5.624;2023-09-19T06:42:44;5.72;;;1.10;;
59042;SDS011;44826;51.596;5.624;2023-09-19T06:45:10;5.85;;;1.30;;
59042;SDS011;44826;51.596;5.624;2023-09-19T06:47:38;7.85;;;1.45;;
59042;SDS011;44826;51.596;5.624;2023-09-19T06:50:04;6.18;;;1.30;;
59042;SDS011;44826;51.596;5.624;2023-09-19T06:52:30;7.53;;;1.23;;
59042;SDS011;44826;51.596;5.624;2023-09-19T06:54:57;6.70;;;1.40;;
59042;SDS011;44826;51.596;5.624;2023-09-19T06:57:22;6.88;;;1.55;;
59042;SDS011;44826;51.596;5.624;2023-09-19T06:59:47;7.32;;;1.55;;
59042;SDS011;44826;51.596;5.624;2023-09-19T07:02:13;5.00;;;1.20;;
59042;SDS011;44826;51.596;5.624;2023-09-19T07:04:38;6.82;;;1.30;;
59042;SDS011;44826;51.596;5.624;2023-09-19T07:07:04;5.00;;;1.38;;
59042;SDS011;44826;51.596;5.624;2023-09-19T07:09:29;6.15;;;1.25;;
59042;SDS011;44826;51.596;5.624;2023-09-19T07:11:54;4.63;;;1.33;;
59042;SDS011;44826;51.596;5.624;2023-09-19T07:14:20;8.93;;;1.50;;
59042;SDS011;44826;51.596;5.624;2023-09-19T07:16:45;6.38;;;1.30;;
59042;SDS011;44826;51.596;5.624;2023-09-19T07:19:12;7.40;;;1.20;;
59042;SDS011;44826;51.596;5.624;2023-09-19T07:21:40;6.15;;;1.15;;
59042;SDS011;44826;51.596;5.624;2023-09-19T07:24:05;7.82;;;1.50;;
59042;SDS011;44826;51.596;5.624;2023-09-19T07:26:30;7.55;;;1.58;;
59042;SDS011;44826;51.596;5.624;2023-09-19T07:28:56;5.65;;;1.20;;
59042;SDS011;44826;51.596;5.624;2023-09-19T07:31:22;6.85;;;1.35;;
59042;SDS011;44826;51.596;5.624;2023-09-19T07:33:48;8.63;;;1.48;;
59042;SDS011;44826;51.596;5.624;2023-09-19T07:36:13;9.15;;;1.35;;
59042;SDS011;44826;51.596;5.624;2023-09-19T07:38:39;7.10;;;1.35;;
59042;SDS011;44826;51.596;5.624;2023-09-19T07:41:05;7.57;;;1.20;;
59042;SDS011;44826;51.596;5.624;2023-09-19T07:43:31;6.30;;;1.40;;
59042;SDS011;44826;51.596;5.624;2023-09-19T07:45:56;8.00;;;1.63;;
59042;SDS011;44826;51.596;5.624;2023-09-19T07:48:22;7.82;;;1.60;;
59042;SDS011;44826;51.596;5.624;2023-09-19T07:50:49;6.95;;;1.30;;
59042;SDS011;44826;51.596;5.624;2023-09-19T07:53:14;6.32;;;1.48;;
59042;SDS011;44826;51.596;5.624;2023-09-19T07:55:40;6.63;;;1.52;;
59042;SDS011;44826;51.596;5.624;2023-09-19T07:58:06;6.78;;;1.23;;
59042;SDS011;44826;51.596;5.624;2023-09-19T08:00:32;8.30;;;1.52;;
59042;SDS011;44826;51.596;5.624;2023-09-19T08:02:59;7.63;;;1.70;;
59042;SDS011;44826;51.596;5.624;2023-09-19T08:05:25;9.45;;;1.70;;
59042;SDS011;44826;51.596;5.624;2023-09-19T08:07:51;8.25;;;1.30;;
59042;SDS011;44826;51.596;5.624;2023-09-19T08:10:21;9.73;;;1.50;;
59042;SDS011;44826;51.596;5.624;2023-09-19T08:12:47;8.27;;;1.73;;
59042;SDS011;44826;51.596;5.624;2023-09-19T08:15:17;6.95;;;1.40;;
59042;SDS011;44826;51.596;5.624;2023-09-19T08:17:45;5.93;;;1.23;;
59042;SDS011;44826;51.596;5.624;2023-09-19T08:20:11;8.55;;;1.40;;
59042;SDS011;44826;51.596;5.624;2023-09-19T08:22:50;9.05;;;1.48;;
59042;SDS011;44826;51.596;5.624;2023-09-19T08:25:23;11.15;;;1.52;;
59042;SDS011;44826;51.596;5.624;2023-09-19T08:27:50;10.02;;;1.65;;
59042;SDS011;44826;51.596;5.624;2023-09-19T08:30:16;5.47;;;1.40;;
59042;SDS011;44826;51.596;5.624;2023-09-19T08:32:43;7.68;;;1.67;;
59042;SDS011;44826;51.596;5.624;2023-09-19T08:35:09;7.15;;;1.50;;
59042;SDS011;44826;51.596;5.624;2023-09-19T08:37:35;8.40;;;1.30;;
59042;SDS011;44826;51.596;5.624;2023-09-19T08:40:00;5.03;;;1.27;;
59042;SDS011;44826;51.596;5.624;2023-09-19T08:42:26;6.95;;;1.40;;
59042;SDS011;44826;51.596;5.624;2023-09-19T08:44:52;8.05;;;1.35;;
59042;SDS011;44826;51.596;5.624;2023-09-19T08:47:21;8.23;;;1.60;;
59042;SDS011;44826;51.596;5.624;2023-09-19T08:50:16;8.20;;;1.80;;
59042;SDS011;44826;51.596;5.624;2023-09-19T08:52:47;9.88;;;1.27;;
59042;SDS011;44826;51.596;5.624;2023-09-19T08:55:19;7.03;;;1.55;;
59042;SDS011;44826;51.596;5.624;2023-09-19T08:57:49;10.05;;;1.50;;
59042;SDS011;44826;51.596;5.624;2023-09-19T09:00:15;12.80;;;1.60;;
59042;SDS011;44826;51.596;5.624;2023-09-19T09:02:42;10.32;;;1.75;;
59042;SDS011;44826;51.596;5.624;2023-09-19T09:05:08;8.35;;;1.50;;
59042;SDS011;44826;51.596;5.624;2023-09-19T09:07:39;13.63;;;1.77;;
59042;SDS011;44826;51.596;5.624;2023-09-19T09:10:05;10.38;;;1.88;;
59042;SDS011;44826;51.596;5.624;2023-09-19T09:12:31;10.88;;;1.70;;
59042;SDS011;44826;51.596;5.624;2023-09-19T09:14:59;8.02;;;1.58;;
59042;SDS011;44826;51.596;5.624;2023-09-19T09:17:25;7.15;;;1.38;;
59042;SDS011;44826;51.596;5.624;2023-09-19T09:19:54;8.00;;;1.70;;
59042;SDS011;44826;51.596;5.624;2023-09-19T09:22:19;9.90;;;1.52;;
59042;SDS011;44826;51.596;5.624;2023-09-19T09:24:56;11.23;;;1.90;;
59042;SDS011;44826;51.596;5.624;2023-09-19T09:27:29;7.70;;;1.42;;
59042;SDS011;44826;51.596;5.624;2023-09-19T09:29:54;7.22;;;1.70;;
59042;SDS011;44826;51.596;5.624;2023-09-19T09:32:21;9.60;;;1.60;;
59042;SDS011;44826;51.596;5.624;2023-09-19T09:35:01;11.68;;;1.90;;
59042;SDS011;44826;51.596;5.624;2023-09-19T09:37:34;9.57;;;1.77;;
59042;SDS011;44826;51.596;5.624;2023-09-19T09:40:03;8.50;;;1.60;;
59042;SDS011;44826;51.596;5.624;2023-09-19T09:42:41;9.48;;;1.77;;
59042;SDS011;44826;51.596;5.624;2023-09-19T09:45:12;9.80;;;1.50;;
59042;SDS011;44826;51.596;5.624;2023-09-19T09:47:44;14.85;;;1.95;;
59042;SDS011;44826;51.596;5.624;2023-09-19T09:50:32;7.53;;;1.40;;
59042;SDS011;44826;51.596;5.624;2023-09-19T09:53:21;10.57;;;2.00;;
59042;SDS011;44826;51.596;5.624;2023-09-19T09:55:57;7.97;;;1.52;;
59042;SDS011;44826;51.596;5.624;2023-09-19T09:58:27;10.52;;;2.15;;
59042;SDS011;44826;51.596;5.624;2023-09-19T10:00:57;6.90;;;1.58;;
59042;SDS011;44826;51.596;5.624;2023-09-19T10:03:31;8.45;;;1.70;;
59042;SDS011;44826;51.596;5.624;2023-09-19T10:06:09;9.07;;;1.60;;
59042;SDS011;44826;51.596;5.624;2023-09-19T10:11:35;8.63;;;1.65;;
59042;SDS011;44826;51.596;5.624;2023-09-19T10:14:24;7.78;;;1.60;;
59042;SDS011;44826;51.596;5.624;2023-09-19T10:16:56;6.25;;;1.85;;
59042;SDS011;44826;51.596;5.624;2023-09-19T10:19:29;6.70;;;1.50;;
59042;SDS011;44826;51.596;5.624;2023-09-19T10:21:58;8.88;;;1.60;;
59042;SDS011;44826;51.596;5.624;2023-09-19T10:24:26;7.47;;;1.63;;
59042;SDS011;44826;51.596;5.624;2023-09-19T10:26:53;6.32;;;1.50;;
59042;SDS011;44826;51.596;5.624;2023-09-19T10:29:19;6.00;;;1.50;;
59042;SDS011;44826;51.596;5.624;2023-09-19T10:31:46;8.75;;;1.20;;
59042;SDS011;44826;51.596;5.624;2023-09-19T10:34:15;11.13;;;1.70;;
59042;SDS011;44826;51.596;5.624;2023-09-19T10:36:45;6.80;;;1.40;;
59042;SDS011;44826;51.596;5.624;2023-09-19T10:39:12;9.68;;;1.55;;
59042;SDS011;44826;51.596;5.624;2023-09-19T10:41:43;6.25;;;1.42;;
59042;SDS011;44826;51.596;5.624;2023-09-19T10:44:19;6.28;;;1.38;;
59042;SDS011;44826;51.596;5.624;2023-09-19T10:46:56;6.13;;;1.33;;
59042;SDS011;44826;51.596;5.624;2023-09-19T10:49:22;9.73;;;1.48;;
59042;SDS011;44826;51.596;5.624;2023-09-19T10:51:50;9.90;;;1.45;;
59042;SDS011;44826;51.596;5.624;2023-09-19T10:54:21;5.97;;;1.30;;
59042;SDS011;44826;51.596;5.624;2023-09-19T10:56:51;10.32;;;1.73;;
59042;SDS011;44826;51.596;5.624;2023-09-19T10:59:18;7.47;;;1.40;;
59042;SDS011;44826;51.596;5.624;2023-09-19T11:01:49;8.45;;;1.50;;
59042;SDS011;44826;51.596;5.624;2023-09-19T11:04:35;10.20;;;1.50;;
59042;SDS011;44826;51.596;5.624;2023-09-19T11:09:56;6.55;;;1.40;;
59042;SDS011;44826;51.596;5.624;2023-09-19T11:14:55;7.28;;;1.48;;
59042;SDS011;44826;51.596;5.624;2023-09-19T11:33:16;6.18;;;1.25;;
59042;SDS011;44826;51.596;5.624;2023-09-19T11:43:45;5.28;;;1.08;;
59042;SDS011;44826;51.596;5.624;2023-09-19T11:46:11;6.00;;;1.42;;
59042;SDS011;44826;51.596;5.624;2023-09-19T11:48:38;6.07;;;1.30;;
59042;SDS011;44826;51.596;5.624;2023-09-19T11:51:09;4.93;;;1.23;;
59042;SDS011;44826;51.596;5.624;2023-09-19T11:53:40;6.57;;;1.33;;
59042;SDS011;44826;51.596;5.624;2023-09-19T11:56:09;4.45;;;1.10;;
59042;SDS011;44826;51.596;5.624;2023-09-19T11:58:35;5.93;;;1.17;;
59042;SDS011;44826;51.596;5.624;2023-09-19T12:01:02;3.40;;;0.95;;
59042;SDS011;44826;51.596;5.624;2023-09-19T12:03:33;4.35;;;1.00;;
59042;SDS011;44826;51.596;5.624;2023-09-19T12:06:10;4.07;;;1.13;;
59042;SDS011;44826;51.596;5.624;2023-09-19T12:08:39;6.15;;;0.73;;
59042;SDS011;44826;51.596;5.624;2023-09-19T12:11:07;3.28;;;0.82;;
59042;SDS011;44826;51.596;5.624;2023-09-19T12:13:40;6.65;;;1.02;;
59042;SDS011;44826;51.596;5.624;2023-09-19T12:16:13;6.88;;;1.10;;
59042;SDS011;44826;51.596;5.624;2023-09-19T12:18:40;5.63;;;1.05;;
59042;SDS011;44826;51.596;5.624;2023-09-19T12:21:08;4.80;;;0.90;;
59042;SDS011;44826;51.596;5.624;2023-09-19T12:23:37;4.03;;;1.02;;
59042;SDS011;44826;51.596;5.624;2023-09-19T12:26:06;5.30;;;1.00;;
59042;SDS011;44826;51.596;5.624;2023-09-19T12:28:38;3.75;;;0.70;;
59042;SDS011;44826;51.596;5.624;2023-09-19T12:31:07;3.67;;;0.80;;
59042;SDS011;44826;51.596;5.624;2023-09-19T12:33:34;4.47;;;0.98;;
59042;SDS011;44826;51.596;5.624;2023-09-19T12:36:00;3.17;;;0.80;;
59042;SDS011;44826;51.596;5.624;2023-09-19T12:38:28;4.82;;;0.80;;
59042;SDS011;44826;51.596;5.624;2023-09-19T12:40:57;2.05;;;0.60;;
59042;SDS011;44826;51.596;5.624;2023-09-19T12:45:51;4.68;;;0.70;;
59042;SDS011;44826;51.596;5.624;2023-09-19T12:50:59;2.67;;;0.70;;
59042;SDS011;44826;51.596;5.624;2023-09-19T12:53:30;2.75;;;0.77;;
59042;SDS011;44826;51.596;5.624;2023-09-19T12:55:58;5.07;;;0.60;;
59042;SDS011;44826;51.596;5.624;2023-09-19T12:58:24;2.45;;;0.60;;
59042;SDS011;44826;51.596;5.624;2023-09-19T13:00:50;4.63;;;0.70;;
59042;SDS011;44826;51.596;5.624;2023-09-19T13:05:50;2.00;;;0.60;;
59042;SDS011;44826;51.596;5.624;2023-09-19T13:08:35;4.13;;;0.80;;
59042;SDS011;44826;51.596;5.624;2023-09-19T13:13:46;4.22;;;0.90;;
59042;SDS011;44826;51.596;5.624;2023-09-19T13:16:14;1.48;;;0.50;;
59042;SDS011;44826;51.596;5.624;2023-09-19T13:18:44;3.85;;;0.60;;
59042;SDS011;44826;51.596;5.624;2023-09-19T13:21:12;1.73;;;0.70;;
59042;SDS011;44826;51.596;5.624;2023-09-19T13:23:51;3.15;;;0.77;;
59042;SDS011;44826;51.596;5.624;2023-09-19T13:26:17;5.20;;;0.80;;
59042;SDS011;44826;51.596;5.624;2023-09-19T13:28:43;4.05;;;0.82;;
59042;SDS011;44826;51.596;5.624;2023-09-19T13:31:09;3.72;;;0.80;;
59042;SDS011;44826;51.596;5.624;2023-09-19T13:33:42;3.33;;;0.77;;
59042;SDS011;44826;51.596;5.624;2023-09-19T13:36:08;2.88;;;0.68;;
59042;SDS011;44826;51.596;5.624;2023-09-19T13:38:34;4.25;;;0.77;;
59042;SDS011;44826;51.596;5.624;2023-09-19T13:40:59;2.97;;;0.80;;
59042;SDS011;44826;51.596;5.624;2023-09-19T13:43:25;2.08;;;0.63;;
59042;SDS011;44826;51.596;5.624;2023-09-19T13:45:51;2.58;;;0.65;;
59042;SDS011;44826;51.596;5.624;2023-09-19T13:48:16;3.83;;;1.00;;
59042;SDS011;44826;51.596;5.624;2023-09-19T13:50:45;2.05;;;0.65;;
59042;SDS011;44826;51.596;5.624;2023-09-19T13:53:11;3.20;;;0.80;;
59042;SDS011;44826;51.596;5.624;2023-09-19T13:55:37;3.25;;;0.70;;
59042;SDS011;44826;51.596;5.624;2023-09-19T13:58:03;5.13;;;0.65;;
59042;SDS011;44826;51.596;5.624;2023-09-19T14:00:30;3.05;;;0.80;;
59042;SDS011;44826;51.596;5.624;2023-09-19T14:02:59;4.70;;;0.70;;
59042;SDS011;44826;51.596;5.624;2023-09-19T14:05:26;1.63;;;0.55;;
59042;SDS011;44826;51.596;5.624;2023-09-19T14:07:53;4.95;;;0.73;;
59042;SDS011;44826;51.596;5.624;2023-09-19T14:10:19;3.50;;;0.55;;
59042;SDS011;44826;51.596;5.624;2023-09-19T14:12:45;3.15;;;0.73;;
59042;SDS011;44826;51.596;5.624;2023-09-19T14:15:11;2.90;;;0.60;;
59042;SDS011;44826;51.596;5.624;2023-09-19T14:17:37;4.03;;;0.70;;
59042;SDS011;44826;51.596;5.624;2023-09-19T14:20:03;4.93;;;0.73;;
59042;SDS011;44826;51.596;5.624;2023-09-19T14:22:30;5.35;;;1.00;;
59042;SDS011;44826;51.596;5.624;2023-09-19T14:24:56;5.18;;;1.08;;
59042;SDS011;44826;51.596;5.624;2023-09-19T14:27:22;1.67;;;0.77;;
59042;SDS011;44826;51.596;5.624;2023-09-19T14:29:47;2.15;;;0.70;;
59042;SDS011;44826;51.596;5.624;2023-09-19T14:32:12;3.13;;;0.77;;
59042;SDS011;44826;51.596;5.624;2023-09-19T14:34:37;3.08;;;0.70;;
59042;SDS011;44826;51.596;5.624;2023-09-19T14:37:07;2.80;;;0.52;;
59042;SDS011;44826;51.596;5.624;2023-09-19T14:39:32;2.88;;;0.77;;
59042;SDS011;44826;51.596;5.624;2023-09-19T14:41:58;3.85;;;0.75;;
59042;SDS011;44826;51.596;5.624;2023-09-19T14:44:23;5.55;;;0.80;;
59042;SDS011;44826;51.596;5.624;2023-09-19T14:46:48;3.47;;;0.75;;
59042;SDS011;44826;51.596;5.624;2023-09-19T14:49:14;5.70;;;0.80;;
59042;SDS011;44826;51.596;5.624;2023-09-19T14:51:40;1.75;;;0.70;;
59042;SDS011;44826;51.596;5.624;2023-09-19T14:54:06;2.65;;;0.70;;
59042;SDS011;44826;51.596;5.624;2023-09-19T14:56:32;2.25;;;0.70;;
59042;SDS011;44826;51.596;5.624;2023-09-19T14:58:58;2.58;;;0.90;;
59042;SDS011;44826;51.596;5.624;2023-09-19T15:01:23;4.10;;;0.77;;
59042;SDS011;44826;51.596;5.624;2023-09-19T15:03:48;5.50;;;0.57;;
59042;SDS011;44826;51.596;5.624;2023-09-19T15:06:14;3.08;;;0.63;;
59042;SDS011;44826;51.596;5.624;2023-09-19T15:08:41;3.95;;;0.70;;
59042;SDS011;44826;51.596;5.624;2023-09-19T15:11:12;2.78;;;1.00;;
59042;SDS011;44826;51.596;5.624;2023-09-19T15:13:38;2.15;;;0.63;;
59042;SDS011;44826;51.596;5.624;2023-09-19T15:16:05;3.58;;;0.80;;
59042;SDS011;44826;51.596;5.624;2023-09-19T15:18:35;4.68;;;0.80;;
59042;SDS011;44826;51.596;5.624;2023-09-19T15:21:05;5.70;;;1.00;;
59042;SDS011;44826;51.596;5.624;2023-09-19T15:23:32;3.50;;;0.77;;
59042;SDS011;44826;51.596;5.624;2023-09-19T15:26:01;2.88;;;0.80;;
59042;SDS011;44826;51.596;5.624;2023-09-19T15:28:30;4.10;;;0.80;;
59042;SDS011;44826;51.596;5.624;2023-09-19T15:30:59;1.88;;;0.60;;
59042;SDS011;44826;51.596;5.624;2023-09-19T15:33:31;3.28;;;0.80;;
59042;SDS011;44826;51.596;5.624;2023-09-19T15:36:15;2.88;;;0.85;;
59042;SDS011;44826;51.596;5.624;2023-09-19T15:38:56;3.08;;;0.73;;
59042;SDS011;44826;51.596;5.624;2023-09-19T15:41:22;3.40;;;0.80;;
59042;SDS011;44826;51.596;5.624;2023-09-19T15:43:48;3.58;;;0.70;;
59042;SDS011;44826;51.596;5.624;2023-09-19T15:46:14;2.92;;;0.80;;